sensor_id;sensor_type;location;lat;lon;timestamp;temperature;humidity
12413;DHT22;13877;18.896;-99.222;2023-02-13T00:00:33;26.10;27.80
12413;DHT22;13877;18.896;-99.222;2023-02-13T00:03:00;25.80;28.00
12413;DHT22;13877;18.896;-99.222;2023-02-13T00:05:27;25.60;28.40
12413;DHT22;13877;18.896;-99.222;2023-02-13T00:07:54;25.50;28.70
12413;DHT22;13877;18.896;-99.222;2023-02-13T00:10:21;25.30;29.10
12413;DHT22;13877;18.896;-99.222;2023-02-13T00:12:48;25.10;29.50
12413;DHT22;13877;18.896;-99.222;2023-02-13T00:15:15;25.00;29.90
12413;DHT22;13877;18.896;-99.222;2023-02-13T00:17:42;24.90;30.00
12413;DHT22;13877;18.896;-99.222;2023-02-13T00:20:10;24.70;29.90
12413;DHT22;13877;18.896;-99.222;2023-02-13T00:22:38;24.60;30.30
12413;DHT22;13877;18.896;-99.222;2023-02-13T00:25:06;24.40;30.00
12413;DHT22;13877;18.896;-99.222;2023-02-13T00:27:33;24.20;30.30
12413;DHT22;13877;18.896;-99.222;2023-02-13T00:30:02;24.00;30.00
12413;DHT22;13877;18.896;-99.222;2023-02-13T00:32:29;23.90;30.90
12413;DHT22;13877;18.896;-99.222;2023-02-13T00:34:57;23.70;31.20
12413;DHT22;13877;18.896;-99.222;2023-02-13T00:37:24;23.50;31.40
12413;DHT22;13877;18.896;-99.222;2023-02-13T00:39:52;23.40;31.50
12413;DHT22;13877;18.896;-99.222;2023-02-13T00:42:19;23.30;31.60
12413;DHT22;13877;18.896;-99.222;2023-02-13T00:44:49;23.10;31.40
12413;DHT22;13877;18.896;-99.222;2023-02-13T00:47:17;23.00;31.50
12413;DHT22;13877;18.896;-99.222;2023-02-13T00:49:44;22.90;31.30
12413;DHT22;13877;18.896;-99.222;2023-02-13T00:52:11;22.80;31.30
12413;DHT22;13877;18.896;-99.222;2023-02-13T00:54:38;22.80;32.40
12413;DHT22;13877;18.896;-99.222;2023-02-13T00:57:05;22.90;32.70
12413;DHT22;13877;18.896;-99.222;2023-02-13T00:59:34;22.90;32.60
12413;DHT22;13877;18.896;-99.222;2023-02-13T01:02:01;22.70;33.50
12413;DHT22;13877;18.896;-99.222;2023-02-13T01:04:28;22.50;33.70
12413;DHT22;13877;18.896;-99.222;2023-02-13T01:06:56;22.30;34.20
12413;DHT22;13877;18.896;-99.222;2023-02-13T01:09:23;22.30;34.60
12413;DHT22;13877;18.896;-99.222;2023-02-13T01:11:50;22.30;34.50
12413;DHT22;13877;18.896;-99.222;2023-02-13T01:14:18;22.20;34.60
12413;DHT22;13877;18.896;-99.222;2023-02-13T01:16:46;22.20;34.60
12413;DHT22;13877;18.896;-99.222;2023-02-13T01:19:14;22.20;34.70
12413;DHT22;13877;18.896;-99.222;2023-02-13T01:21:42;22.20;35.10
12413;DHT22;13877;18.896;-99.222;2023-02-13T01:24:10;22.10;34.90
12413;DHT22;13877;18.896;-99.222;2023-02-13T01:26:37;21.90;35.10
12413;DHT22;13877;18.896;-99.222;2023-02-13T01:29:04;21.90;36.00
12413;DHT22;13877;18.896;-99.222;2023-02-13T01:31:32;22.00;36.00
12413;DHT22;13877;18.896;-99.222;2023-02-13T01:33:59;22.20;37.10
12413;DHT22;13877;18.896;-99.222;2023-02-13T01:36:26;22.40;36.40
12413;DHT22;13877;18.896;-99.222;2023-02-13T01:38:56;22.40;36.60
12413;DHT22;13877;18.896;-99.222;2023-02-13T01:41:24;22.50;36.80
12413;DHT22;13877;18.896;-99.222;2023-02-13T01:46:39;22.40;37.10
12413;DHT22;13877;18.896;-99.222;2023-02-13T01:49:20;22.40;36.90
12413;DHT22;13877;18.896;-99.222;2023-02-13T01:51:53;22.30;36.90
12413;DHT22;13877;18.896;-99.222;2023-02-13T01:54:28;22.30;37.10
12413;DHT22;13877;18.896;-99.222;2023-02-13T01:57:07;22.30;37.10
12413;DHT22;13877;18.896;-99.222;2023-02-13T02:00:28;22.20;36.80
12413;DHT22;13877;18.896;-99.222;2023-02-13T02:02:56;22.20;37.00
12413;DHT22;13877;18.896;-99.222;2023-02-13T02:05:27;22.20;36.90
12413;DHT22;13877;18.896;-99.222;2023-02-13T02:07:58;22.20;36.50
12413;DHT22;13877;18.896;-99.222;2023-02-13T02:10:26;22.20;36.60
12413;DHT22;13877;18.896;-99.222;2023-02-13T02:13:14;22.10;36.70
12413;DHT22;13877;18.896;-99.222;2023-02-13T02:15:42;22.10;36.50
12413;DHT22;13877;18.896;-99.222;2023-02-13T02:18:18;22.20;36.50
12413;DHT22;13877;18.896;-99.222;2023-02-13T02:26:57;22.00;36.50
12413;DHT22;13877;18.896;-99.222;2023-02-13T02:35:34;21.80;36.50
12413;DHT22;13877;18.896;-99.222;2023-02-13T02:38:33;21.80;36.60
12413;DHT22;13877;18.896;-99.222;2023-02-13T02:41:09;21.90;36.30
12413;DHT22;13877;18.896;-99.222;2023-02-13T02:49:38;21.70;36.00
12413;DHT22;13877;18.896;-99.222;2023-02-13T02:55:46;21.70;35.50
12413;DHT22;13877;18.896;-99.222;2023-02-13T03:01:53;21.70;35.10
12413;DHT22;13877;18.896;-99.222;2023-02-13T03:04:51;21.70;34.90
12413;DHT22;13877;18.896;-99.222;2023-02-13T03:07:37;21.70;34.60
12413;DHT22;13877;18.896;-99.222;2023-02-13T03:10:10;21.60;34.70
12413;DHT22;13877;18.896;-99.222;2023-02-13T03:13:02;21.60;34.50
12413;DHT22;13877;18.896;-99.222;2023-02-13T03:15:51;21.60;34.50
12413;DHT22;13877;18.896;-99.222;2023-02-13T03:18:41;21.70;34.30
12413;DHT22;13877;18.896;-99.222;2023-02-13T03:22:12;21.70;34.40
12413;DHT22;13877;18.896;-99.222;2023-02-13T03:27:40;21.50;34.50
12413;DHT22;13877;18.896;-99.222;2023-02-13T03:30:45;21.50;34.50
12413;DHT22;13877;18.896;-99.222;2023-02-13T03:36:02;21.60;34.30
12413;DHT22;13877;18.896;-99.222;2023-02-13T03:42:00;21.50;34.10
12413;DHT22;13877;18.896;-99.222;2023-02-13T03:44:50;21.50;34.10
12413;DHT22;13877;18.896;-99.222;2023-02-13T03:47:43;21.50;33.90
12413;DHT22;13877;18.896;-99.222;2023-02-13T03:50:11;21.40;33.70
12413;DHT22;13877;18.896;-99.222;2023-02-13T03:52:50;21.40;33.60
12413;DHT22;13877;18.896;-99.222;2023-02-13T03:55:27;21.30;33.60
12413;DHT22;13877;18.896;-99.222;2023-02-13T03:58:21;21.40;33.70
12413;DHT22;13877;18.896;-99.222;2023-02-13T04:01:10;21.30;33.60
12413;DHT22;13877;18.896;-99.222;2023-02-13T04:03:56;21.40;33.50
12413;DHT22;13877;18.896;-99.222;2023-02-13T04:06:31;21.30;33.50
12413;DHT22;13877;18.896;-99.222;2023-02-13T04:09:00;21.20;33.80
12413;DHT22;13877;18.896;-99.222;2023-02-13T04:11:34;21.20;33.90
12413;DHT22;13877;18.896;-99.222;2023-02-13T04:14:13;21.20;34.10
12413;DHT22;13877;18.896;-99.222;2023-02-13T04:16:58;21.20;34.40
12413;DHT22;13877;18.896;-99.222;2023-02-13T04:19:29;21.10;34.50
12413;DHT22;13877;18.896;-99.222;2023-02-13T04:21:59;21.10;34.20
12413;DHT22;13877;18.896;-99.222;2023-02-13T04:24:27;21.00;34.30
12413;DHT22;13877;18.896;-99.222;2023-02-13T04:26:54;21.10;34.50
12413;DHT22;13877;18.896;-99.222;2023-02-13T04:29:22;21.00;34.40
12413;DHT22;13877;18.896;-99.222;2023-02-13T04:31:49;21.10;34.00
12413;DHT22;13877;18.896;-99.222;2023-02-13T04:34:16;21.10;33.90
12413;DHT22;13877;18.896;-99.222;2023-02-13T04:36:43;21.10;33.90
12413;DHT22;13877;18.896;-99.222;2023-02-13T04:39:11;21.10;34.00
12413;DHT22;13877;18.896;-99.222;2023-02-13T04:41:38;21.10;34.00
12413;DHT22;13877;18.896;-99.222;2023-02-13T04:44:05;21.10;33.80
12413;DHT22;13877;18.896;-99.222;2023-02-13T04:46:32;21.10;33.70
12413;DHT22;13877;18.896;-99.222;2023-02-13T04:48:59;21.10;33.80
12413;DHT22;13877;18.896;-99.222;2023-02-13T04:51:26;21.00;33.80
12413;DHT22;13877;18.896;-99.222;2023-02-13T04:53:53;20.90;34.10
12413;DHT22;13877;18.896;-99.222;2023-02-13T04:56:20;20.90;34.00
12413;DHT22;13877;18.896;-99.222;2023-02-13T04:58:47;20.80;34.00
12413;DHT22;13877;18.896;-99.222;2023-02-13T05:01:15;20.90;34.00
12413;DHT22;13877;18.896;-99.222;2023-02-13T05:03:43;20.80;34.00
12413;DHT22;13877;18.896;-99.222;2023-02-13T05:06:10;20.90;33.80
12413;DHT22;13877;18.896;-99.222;2023-02-13T05:08:37;20.90;33.60
12413;DHT22;13877;18.896;-99.222;2023-02-13T05:11:05;20.90;33.60
12413;DHT22;13877;18.896;-99.222;2023-02-13T05:13:32;20.90;33.40
12413;DHT22;13877;18.896;-99.222;2023-02-13T05:15:59;20.90;33.60
12413;DHT22;13877;18.896;-99.222;2023-02-13T05:18:28;20.80;33.60
12413;DHT22;13877;18.896;-99.222;2023-02-13T05:20:55;20.80;33.50
12413;DHT22;13877;18.896;-99.222;2023-02-13T05:23:40;20.80;33.50
12413;DHT22;13877;18.896;-99.222;2023-02-13T05:26:07;20.80;33.60
12413;DHT22;13877;18.896;-99.222;2023-02-13T05:28:35;20.80;33.20
12413;DHT22;13877;18.896;-99.222;2023-02-13T05:31:20;20.80;33.30
12413;DHT22;13877;18.896;-99.222;2023-02-13T05:33:46;20.80;33.10
12413;DHT22;13877;18.896;-99.222;2023-02-13T05:36:13;20.80;33.20
12413;DHT22;13877;18.896;-99.222;2023-02-13T05:38:40;20.70;33.10
12413;DHT22;13877;18.896;-99.222;2023-02-13T05:41:07;20.70;33.40
12413;DHT22;13877;18.896;-99.222;2023-02-13T05:43:34;20.70;33.20
12413;DHT22;13877;18.896;-99.222;2023-02-13T05:46:06;20.60;33.40
12413;DHT22;13877;18.896;-99.222;2023-02-13T05:48:34;20.60;33.60
12413;DHT22;13877;18.896;-99.222;2023-02-13T05:51:01;20.60;33.40
12413;DHT22;13877;18.896;-99.222;2023-02-13T05:53:28;20.60;33.50
12413;DHT22;13877;18.896;-99.222;2023-02-13T05:55:55;20.70;33.40
12413;DHT22;13877;18.896;-99.222;2023-02-13T05:58:22;20.70;33.40
12413;DHT22;13877;18.896;-99.222;2023-02-13T06:00:49;20.70;33.50
12413;DHT22;13877;18.896;-99.222;2023-02-13T06:03:16;20.60;33.40
12413;DHT22;13877;18.896;-99.222;2023-02-13T06:05:43;20.60;33.50
12413;DHT22;13877;18.896;-99.222;2023-02-13T06:08:11;20.60;33.60
12413;DHT22;13877;18.896;-99.222;2023-02-13T06:10:38;20.60;33.40
12413;DHT22;13877;18.896;-99.222;2023-02-13T06:13:05;20.60;33.60
12413;DHT22;13877;18.896;-99.222;2023-02-13T06:15:31;20.60;33.60
12413;DHT22;13877;18.896;-99.222;2023-02-13T06:17:59;20.60;33.50
12413;DHT22;13877;18.896;-99.222;2023-02-13T06:20:26;20.60;34.10
12413;DHT22;13877;18.896;-99.222;2023-02-13T06:22:54;20.60;33.30
12413;DHT22;13877;18.896;-99.222;2023-02-13T06:25:21;20.60;33.30
12413;DHT22;13877;18.896;-99.222;2023-02-13T06:27:48;20.50;33.30
12413;DHT22;13877;18.896;-99.222;2023-02-13T06:30:16;20.50;33.20
12413;DHT22;13877;18.896;-99.222;2023-02-13T06:32:46;20.50;33.20
12413;DHT22;13877;18.896;-99.222;2023-02-13T06:35:14;20.50;33.10
12413;DHT22;13877;18.896;-99.222;2023-02-13T06:37:42;20.60;32.90
12413;DHT22;13877;18.896;-99.222;2023-02-13T06:40:09;20.60;33.10
12413;DHT22;13877;18.896;-99.222;2023-02-13T06:42:36;20.60;33.00
12413;DHT22;13877;18.896;-99.222;2023-02-13T06:45:04;20.60;32.80
12413;DHT22;13877;18.896;-99.222;2023-02-13T06:47:31;20.60;32.80
12413;DHT22;13877;18.896;-99.222;2023-02-13T06:49:58;20.60;32.70
12413;DHT22;13877;18.896;-99.222;2023-02-13T06:52:25;20.60;32.70
12413;DHT22;13877;18.896;-99.222;2023-02-13T06:54:52;20.50;32.60
12413;DHT22;13877;18.896;-99.222;2023-02-13T06:57:19;20.60;32.50
12413;DHT22;13877;18.896;-99.222;2023-02-13T06:59:46;20.50;32.60
12413;DHT22;13877;18.896;-99.222;2023-02-13T07:02:13;20.40;32.70
12413;DHT22;13877;18.896;-99.222;2023-02-13T07:04:40;20.40;32.70
12413;DHT22;13877;18.896;-99.222;2023-02-13T07:07:07;20.40;32.90
12413;DHT22;13877;18.896;-99.222;2023-02-13T07:09:35;20.40;32.70
12413;DHT22;13877;18.896;-99.222;2023-02-13T07:12:03;20.50;32.60
12413;DHT22;13877;18.896;-99.222;2023-02-13T07:14:31;20.50;32.60
12413;DHT22;13877;18.896;-99.222;2023-02-13T07:16:59;20.40;32.50
12413;DHT22;13877;18.896;-99.222;2023-02-13T07:19:28;20.50;32.30
12413;DHT22;13877;18.896;-99.222;2023-02-13T07:21:54;20.40;32.40
12413;DHT22;13877;18.896;-99.222;2023-02-13T07:24:21;20.40;32.70
12413;DHT22;13877;18.896;-99.222;2023-02-13T07:26:48;20.30;32.80
12413;DHT22;13877;18.896;-99.222;2023-02-13T07:29:15;20.40;33.20
12413;DHT22;13877;18.896;-99.222;2023-02-13T07:31:42;20.40;32.60
12413;DHT22;13877;18.896;-99.222;2023-02-13T07:34:09;20.30;32.70
12413;DHT22;13877;18.896;-99.222;2023-02-13T07:36:36;20.30;32.60
12413;DHT22;13877;18.896;-99.222;2023-02-13T07:39:03;20.30;32.70
12413;DHT22;13877;18.896;-99.222;2023-02-13T07:41:30;20.30;32.70
12413;DHT22;13877;18.896;-99.222;2023-02-13T07:43:57;20.20;32.90
12413;DHT22;13877;18.896;-99.222;2023-02-13T07:46:24;20.20;33.00
12413;DHT22;13877;18.896;-99.222;2023-02-13T07:48:51;20.20;33.00
12413;DHT22;13877;18.896;-99.222;2023-02-13T07:51:18;20.10;32.90
12413;DHT22;13877;18.896;-99.222;2023-02-13T07:53:46;20.10;33.10
12413;DHT22;13877;18.896;-99.222;2023-02-13T07:56:12;20.10;33.20
12413;DHT22;13877;18.896;-99.222;2023-02-13T07:58:40;20.00;33.30
12413;DHT22;13877;18.896;-99.222;2023-02-13T08:01:12;19.90;33.50
12413;DHT22;13877;18.896;-99.222;2023-02-13T08:03:40;19.80;33.60
12413;DHT22;13877;18.896;-99.222;2023-02-13T08:06:07;19.90;33.60
12413;DHT22;13877;18.896;-99.222;2023-02-13T08:08:35;19.80;33.60
12413;DHT22;13877;18.896;-99.222;2023-02-13T08:11:06;19.70;33.80
12413;DHT22;13877;18.896;-99.222;2023-02-13T08:13:52;19.70;33.80
12413;DHT22;13877;18.896;-99.222;2023-02-13T08:16:19;19.70;33.60
12413;DHT22;13877;18.896;-99.222;2023-02-13T08:18:46;19.70;33.80
12413;DHT22;13877;18.896;-99.222;2023-02-13T08:21:13;19.50;33.90
12413;DHT22;13877;18.896;-99.222;2023-02-13T08:23:41;19.60;33.90
12413;DHT22;13877;18.896;-99.222;2023-02-13T08:26:07;19.30;34.10
12413;DHT22;13877;18.896;-99.222;2023-02-13T08:28:34;19.20;35.40
12413;DHT22;13877;18.896;-99.222;2023-02-13T08:31:06;19.00;36.90
12413;DHT22;13877;18.896;-99.222;2023-02-13T08:33:35;18.70;37.10
12413;DHT22;13877;18.896;-99.222;2023-02-13T08:36:05;18.40;37.90
12413;DHT22;13877;18.896;-99.222;2023-02-13T08:38:33;18.50;37.90
12413;DHT22;13877;18.896;-99.222;2023-02-13T08:40:59;18.60;37.60
12413;DHT22;13877;18.896;-99.222;2023-02-13T08:43:26;18.70;37.50
12413;DHT22;13877;18.896;-99.222;2023-02-13T08:45:53;18.80;37.30
12413;DHT22;13877;18.896;-99.222;2023-02-13T08:48:24;19.00;36.90
12413;DHT22;13877;18.896;-99.222;2023-02-13T08:50:51;19.20;36.30
12413;DHT22;13877;18.896;-99.222;2023-02-13T08:53:17;19.20;35.70
12413;DHT22;13877;18.896;-99.222;2023-02-13T08:55:54;19.20;35.90
12413;DHT22;13877;18.896;-99.222;2023-02-13T08:58:22;19.10;35.50
12413;DHT22;13877;18.896;-99.222;2023-02-13T09:00:49;19.20;35.50
12413;DHT22;13877;18.896;-99.222;2023-02-13T09:03:16;19.40;35.50
12413;DHT22;13877;18.896;-99.222;2023-02-13T09:05:43;19.30;35.60
12413;DHT22;13877;18.896;-99.222;2023-02-13T09:08:10;19.20;35.70
12413;DHT22;13877;18.896;-99.222;2023-02-13T09:10:40;19.10;35.90
12413;DHT22;13877;18.896;-99.222;2023-02-13T09:13:09;18.90;36.10
12413;DHT22;13877;18.896;-99.222;2023-02-13T09:15:38;18.80;36.40
12413;DHT22;13877;18.896;-99.222;2023-02-13T09:18:06;18.70;36.80
12413;DHT22;13877;18.896;-99.222;2023-02-13T09:20:33;18.60;36.60
12413;DHT22;13877;18.896;-99.222;2023-02-13T09:23:01;18.70;36.50
12413;DHT22;13877;18.896;-99.222;2023-02-13T09:25:27;18.80;36.70
12413;DHT22;13877;18.896;-99.222;2023-02-13T09:27:54;18.70;36.70
12413;DHT22;13877;18.896;-99.222;2023-02-13T09:30:22;18.50;36.80
12413;DHT22;13877;18.896;-99.222;2023-02-13T09:32:50;18.20;37.50
12413;DHT22;13877;18.896;-99.222;2023-02-13T09:35:18;17.90;37.60
12413;DHT22;13877;18.896;-99.222;2023-02-13T09:37:45;17.80;38.00
12413;DHT22;13877;18.896;-99.222;2023-02-13T09:40:24;17.60;38.60
12413;DHT22;13877;18.896;-99.222;2023-02-13T09:45:46;17.60;38.40
12413;DHT22;13877;18.896;-99.222;2023-02-13T09:48:20;17.60;38.60
12413;DHT22;13877;18.896;-99.222;2023-02-13T09:50:49;17.70;38.30
12413;DHT22;13877;18.896;-99.222;2023-02-13T09:53:21;17.80;38.30
12413;DHT22;13877;18.896;-99.222;2023-02-13T09:58:47;17.80;38.40
12413;DHT22;13877;18.896;-99.222;2023-02-13T10:01:38;17.90;38.70
12413;DHT22;13877;18.896;-99.222;2023-02-13T10:13:26;17.80;39.90
12413;DHT22;13877;18.896;-99.222;2023-02-13T10:16:20;17.70;40.80
12413;DHT22;13877;18.896;-99.222;2023-02-13T10:21:33;17.40;41.70
12413;DHT22;13877;18.896;-99.222;2023-02-13T10:24:09;17.20;42.00
12413;DHT22;13877;18.896;-99.222;2023-02-13T10:26:42;17.20;42.50
12413;DHT22;13877;18.896;-99.222;2023-02-13T10:32:15;17.40;42.70
12413;DHT22;13877;18.896;-99.222;2023-02-13T10:34:44;17.30;42.80
12413;DHT22;13877;18.896;-99.222;2023-02-13T10:37:18;17.20;43.10
12413;DHT22;13877;18.896;-99.222;2023-02-13T10:39:48;17.10;43.40
12413;DHT22;13877;18.896;-99.222;2023-02-13T10:42:39;17.20;44.40
12413;DHT22;13877;18.896;-99.222;2023-02-13T10:48:14;16.90;44.40
12413;DHT22;13877;18.896;-99.222;2023-02-13T10:53:34;16.80;44.70
12413;DHT22;13877;18.896;-99.222;2023-02-13T10:56:24;17.00;45.00
12413;DHT22;13877;18.896;-99.222;2023-02-13T11:04:09;16.90;44.80
12413;DHT22;13877;18.896;-99.222;2023-02-13T11:06:41;17.10;44.20
12413;DHT22;13877;18.896;-99.222;2023-02-13T11:09:09;17.20;43.70
12413;DHT22;13877;18.896;-99.222;2023-02-13T11:11:40;17.20;43.60
12413;DHT22;13877;18.896;-99.222;2023-02-13T11:14:17;17.30;43.30
12413;DHT22;13877;18.896;-99.222;2023-02-13T11:16:57;17.40;42.90
12413;DHT22;13877;18.896;-99.222;2023-02-13T11:19:30;17.40;42.80
12413;DHT22;13877;18.896;-99.222;2023-02-13T11:22:04;17.30;43.10
12413;DHT22;13877;18.896;-99.222;2023-02-13T11:24:32;17.20;43.20
12413;DHT22;13877;18.896;-99.222;2023-02-13T11:27:06;17.20;43.20
12413;DHT22;13877;18.896;-99.222;2023-02-13T11:30:06;17.10;43.30
12413;DHT22;13877;18.896;-99.222;2023-02-13T11:33:05;17.10;43.30
12413;DHT22;13877;18.896;-99.222;2023-02-13T11:35:34;17.10;43.40
12413;DHT22;13877;18.896;-99.222;2023-02-13T11:38:20;17.10;43.20
12413;DHT22;13877;18.896;-99.222;2023-02-13T11:41:09;17.10;43.10
12413;DHT22;13877;18.896;-99.222;2023-02-13T11:46:20;17.10;43.50
12413;DHT22;13877;18.896;-99.222;2023-02-13T11:49:04;17.10;43.30
12413;DHT22;13877;18.896;-99.222;2023-02-13T11:51:52;17.20;43.10
12413;DHT22;13877;18.896;-99.222;2023-02-13T11:59:49;17.20;43.10
12413;DHT22;13877;18.896;-99.222;2023-02-13T12:02:29;17.30;42.50
12413;DHT22;13877;18.896;-99.222;2023-02-13T12:05:22;17.40;41.90
12413;DHT22;13877;18.896;-99.222;2023-02-13T12:07:50;17.40;41.70
12413;DHT22;13877;18.896;-99.222;2023-02-13T12:10:24;17.40;41.50
12413;DHT22;13877;18.896;-99.222;2023-02-13T12:15:29;17.40;41.10
12413;DHT22;13877;18.896;-99.222;2023-02-13T12:24:02;17.20;40.70
12413;DHT22;13877;18.896;-99.222;2023-02-13T12:26:43;17.30;40.80
12413;DHT22;13877;18.896;-99.222;2023-02-13T12:29:25;17.20;40.50
12413;DHT22;13877;18.896;-99.222;2023-02-13T12:32:09;17.30;40.40
12413;DHT22;13877;18.896;-99.222;2023-02-13T12:48:31;17.00;41.10
12413;DHT22;13877;18.896;-99.222;2023-02-13T12:52:07;17.00;40.90
12413;DHT22;13877;18.896;-99.222;2023-02-13T13:00:07;17.10;40.40
12413;DHT22;13877;18.896;-99.222;2023-02-13T13:02:52;17.00;40.30
12413;DHT22;13877;18.896;-99.222;2023-02-13T13:13:45;17.10;40.30
12413;DHT22;13877;18.896;-99.222;2023-02-13T13:19:23;17.30;39.50
12413;DHT22;13877;18.896;-99.222;2023-02-13T13:27:27;17.40;38.80
12413;DHT22;13877;18.896;-99.222;2023-02-13T13:29:57;17.50;39.10
12413;DHT22;13877;18.896;-99.222;2023-02-13T13:32:26;17.50;38.90
12413;DHT22;13877;18.896;-99.222;2023-02-13T13:34:55;17.60;39.00
12413;DHT22;13877;18.896;-99.222;2023-02-13T13:43:01;17.60;39.20
12413;DHT22;13877;18.896;-99.222;2023-02-13T13:48:18;17.80;39.60
12413;DHT22;13877;18.896;-99.222;2023-02-13T13:50:48;17.80;39.40
12413;DHT22;13877;18.896;-99.222;2023-02-13T13:53:20;17.90;39.60
12413;DHT22;13877;18.896;-99.222;2023-02-13T14:06:28;18.50;39.70
12413;DHT22;13877;18.896;-99.222;2023-02-13T14:09:05;18.60;39.70
12413;DHT22;13877;18.896;-99.222;2023-02-13T14:11:39;18.80;40.10
12413;DHT22;13877;18.896;-99.222;2023-02-13T14:16:54;19.50;39.30
12413;DHT22;13877;18.896;-99.222;2023-02-13T14:19:39;19.90;38.80
12413;DHT22;13877;18.896;-99.222;2023-02-13T14:27:29;21.00;38.20
12413;DHT22;13877;18.896;-99.222;2023-02-13T14:29:57;21.40;37.50
12413;DHT22;13877;18.896;-99.222;2023-02-13T14:32:34;21.90;36.80
12413;DHT22;13877;18.896;-99.222;2023-02-13T14:37:56;22.50;35.40
12413;DHT22;13877;18.896;-99.222;2023-02-13T14:43:48;22.60;35.20
12413;DHT22;13877;18.896;-99.222;2023-02-13T14:46:33;23.00;35.70
12413;DHT22;13877;18.896;-99.222;2023-02-13T14:49:09;23.10;35.30
12413;DHT22;13877;18.896;-99.222;2023-02-13T14:51:44;23.30;35.20
12413;DHT22;13877;18.896;-99.222;2023-02-13T14:57:06;23.70;35.40
12413;DHT22;13877;18.896;-99.222;2023-02-13T14:59:38;24.10;35.50
12413;DHT22;13877;18.896;-99.222;2023-02-13T15:02:26;23.90;35.40
12413;DHT22;13877;18.896;-99.222;2023-02-13T15:05:07;23.90;35.50
12413;DHT22;13877;18.896;-99.222;2023-02-13T15:07:56;24.20;35.10
12413;DHT22;13877;18.896;-99.222;2023-02-13T15:13:21;24.80;33.50
12413;DHT22;13877;18.896;-99.222;2023-02-13T15:16:01;24.60;34.30
12413;DHT22;13877;18.896;-99.222;2023-02-13T15:18:50;24.70;33.50
12413;DHT22;13877;18.896;-99.222;2023-02-13T15:21:23;24.40;34.00
12413;DHT22;13877;18.896;-99.222;2023-02-13T15:23:53;24.30;34.00
12413;DHT22;13877;18.896;-99.222;2023-02-13T15:26:23;24.40;34.60
12413;DHT22;13877;18.896;-99.222;2023-02-13T15:29:01;24.60;33.90
12413;DHT22;13877;18.896;-99.222;2023-02-13T15:31:32;24.50;34.30
12413;DHT22;13877;18.896;-99.222;2023-02-13T15:34:00;24.90;33.30
12413;DHT22;13877;18.896;-99.222;2023-02-13T15:36:40;25.10;33.90
12413;DHT22;13877;18.896;-99.222;2023-02-13T15:39:16;25.00;34.30
12413;DHT22;13877;18.896;-99.222;2023-02-13T15:41:49;24.80;33.90
12413;DHT22;13877;18.896;-99.222;2023-02-13T15:44:27;25.50;33.50
12413;DHT22;13877;18.896;-99.222;2023-02-13T15:47:02;25.70;32.40
12413;DHT22;13877;18.896;-99.222;2023-02-13T15:49:37;26.20;32.00
12413;DHT22;13877;18.896;-99.222;2023-02-13T15:52:12;26.40;31.60
12413;DHT22;13877;18.896;-99.222;2023-02-13T15:54:51;26.30;31.30
12413;DHT22;13877;18.896;-99.222;2023-02-13T15:57:20;26.10;31.80
12413;DHT22;13877;18.896;-99.222;2023-02-13T15:59:49;25.60;32.50
12413;DHT22;13877;18.896;-99.222;2023-02-13T16:04:54;24.90;34.30
12413;DHT22;13877;18.896;-99.222;2023-02-13T16:07:23;25.30;33.20
12413;DHT22;13877;18.896;-99.222;2023-02-13T16:09:51;26.10;32.10
12413;DHT22;13877;18.896;-99.222;2023-02-13T16:12:26;25.60;32.30
12413;DHT22;13877;18.896;-99.222;2023-02-13T16:15:00;25.60;32.40
12413;DHT22;13877;18.896;-99.222;2023-02-13T16:17:35;26.60;30.50
12413;DHT22;13877;18.896;-99.222;2023-02-13T16:20:07;27.40;29.90
12413;DHT22;13877;18.896;-99.222;2023-02-13T16:22:49;26.80;30.50
12413;DHT22;13877;18.896;-99.222;2023-02-13T16:25:25;26.80;30.90
12413;DHT22;13877;18.896;-99.222;2023-02-13T16:27:57;26.60;32.00
12413;DHT22;13877;18.896;-99.222;2023-02-13T16:35:55;27.10;32.10
12413;DHT22;13877;18.896;-99.222;2023-02-13T16:41:02;26.60;33.10
12413;DHT22;13877;18.896;-99.222;2023-02-13T16:43:37;27.00;31.70
12413;DHT22;13877;18.896;-99.222;2023-02-13T16:48:42;26.00;32.20
12413;DHT22;13877;18.896;-99.222;2023-02-13T16:51:09;26.10;31.90
12413;DHT22;13877;18.896;-99.222;2023-02-13T16:53:37;26.30;30.80
12413;DHT22;13877;18.896;-99.222;2023-02-13T16:56:09;26.70;30.70
12413;DHT22;13877;18.896;-99.222;2023-02-13T16:58:38;27.20;29.90
12413;DHT22;13877;18.896;-99.222;2023-02-13T17:01:05;27.30;30.10
12413;DHT22;13877;18.896;-99.222;2023-02-13T17:03:32;27.30;30.00
12413;DHT22;13877;18.896;-99.222;2023-02-13T17:06:02;27.60;30.60
12413;DHT22;13877;18.896;-99.222;2023-02-13T17:08:32;28.30;28.80
12413;DHT22;13877;18.896;-99.222;2023-02-13T17:11:08;28.50;28.60
12413;DHT22;13877;18.896;-99.222;2023-02-13T17:13:43;28.00;28.60
12413;DHT22;13877;18.896;-99.222;2023-02-13T17:16:10;28.20;29.30
12413;DHT22;13877;18.896;-99.222;2023-02-13T17:18:38;28.80;28.20
12413;DHT22;13877;18.896;-99.222;2023-02-13T17:21:05;28.50;29.50
12413;DHT22;13877;18.896;-99.222;2023-02-13T17:23:32;28.80;29.30
12413;DHT22;13877;18.896;-99.222;2023-02-13T17:25:59;29.20;28.80
12413;DHT22;13877;18.896;-99.222;2023-02-13T17:28:26;29.50;28.40
12413;DHT22;13877;18.896;-99.222;2023-02-13T17:30:56;28.80;29.00
12413;DHT22;13877;18.896;-99.222;2023-02-13T17:33:29;28.10;28.10
12413;DHT22;13877;18.896;-99.222;2023-02-13T17:35:57;28.20;28.10
12413;DHT22;13877;18.896;-99.222;2023-02-13T17:38:23;29.30;28.30
12413;DHT22;13877;18.896;-99.222;2023-02-13T17:40:51;29.20;28.10
12413;DHT22;13877;18.896;-99.222;2023-02-13T17:43:18;29.80;27.50
12413;DHT22;13877;18.896;-99.222;2023-02-13T17:45:47;29.60;27.80
12413;DHT22;13877;18.896;-99.222;2023-02-13T17:48:14;29.30;27.80
12413;DHT22;13877;18.896;-99.222;2023-02-13T17:50:42;29.50;27.90
12413;DHT22;13877;18.896;-99.222;2023-02-13T17:53:25;29.70;28.20
12413;DHT22;13877;18.896;-99.222;2023-02-13T17:55:53;29.50;28.00
12413;DHT22;13877;18.896;-99.222;2023-02-13T17:58:21;30.30;27.80
12413;DHT22;13877;18.896;-99.222;2023-02-13T18:00:54;30.20;26.70
12413;DHT22;13877;18.896;-99.222;2023-02-13T18:03:21;29.90;27.00
12413;DHT22;13877;18.896;-99.222;2023-02-13T18:05:49;29.80;26.90
12413;DHT22;13877;18.896;-99.222;2023-02-13T18:08:20;29.30;26.90
12413;DHT22;13877;18.896;-99.222;2023-02-13T18:10:48;29.30;27.10
12413;DHT22;13877;18.896;-99.222;2023-02-13T18:13:15;29.70;26.20
12413;DHT22;13877;18.896;-99.222;2023-02-13T18:15:44;30.20;26.30
12413;DHT22;13877;18.896;-99.222;2023-02-13T18:18:18;30.70;25.90
12413;DHT22;13877;18.896;-99.222;2023-02-13T18:20:45;31.20;25.70
12413;DHT22;13877;18.896;-99.222;2023-02-13T18:23:13;31.10;25.00
12413;DHT22;13877;18.896;-99.222;2023-02-13T18:25:40;30.10;25.80